Time;durP1;ratioP1;P1;durP2;ratioP2;P2;SDS_P1;SDS_P2;PMS_P1;PMS_P2;Temp;Humidity;BMP_temperature;BMP_pressure;BME280_temperature;BME280_humidity;BME280_pressure;Samples;Min_cycle;Max_cycle;Signal;HPM_P1;HPM_P2
2022/09/26 00:00:40;;;;;;;14.52;8.05;;;9.60;99.90;;;;;;5022467;28;20032;-46
2022/09/26 00:03:05;;;;;;;9.88;6.90;;;9.60;99.90;;;;;;5021536;28;20437;-44
2022/09/26 00:05:35;;;;;;;16.45;8.45;;;9.60;99.90;;;;;;5020415;28;20022;-44
2022/09/26 00:08:01;;;;;;;11.40;8.48;;;9.60;99.90;;;;;;5021729;28;20018;-44
2022/09/26 00:10:27;;;;;;;15.88;9.00;;;9.60;99.90;;;;;;5025426;28;20028;-44
2022/09/26 00:12:54;;;;;;;13.82;8.88;;;9.60;99.90;;;;;;5025689;28;20033;-45
2022/09/26 00:15:19;;;;;;;13.27;7.65;;;9.60;99.90;;;;;;5021883;28;20032;-47
2022/09/26 00:17:45;;;;;;;8.77;6.68;;;9.60;99.90;;;;;;5021616;28;20022;-46
2022/09/26 00:20:11;;;;;;;13.82;7.43;;;9.60;99.90;;;;;;5019828;28;20052;-44
2022/09/26 00:22:36;;;;;;;13.40;7.95;;;9.50;99.90;;;;;;5021480;28;20028;-44
2022/09/26 00:25:02;;;;;;;16.20;7.20;;;9.60;99.90;;;;;;5020975;28;20040;-45
2022/09/26 00:27:28;;;;;;;17.60;8.02;;;9.60;99.90;;;;;;5020286;28;20483;-46
2022/09/26 00:29:53;;;;;;;15.13;7.22;;;9.60;99.90;;;;;;5022356;28;20036;-45
2022/09/26 00:32:19;;;;;;;10.50;6.80;;;9.60;99.90;;;;;;5020495;28;20368;-45
2022/09/26 00:34:45;;;;;;;14.90;7.70;;;9.70;99.90;;;;;;5020859;28;20022;-44
2022/09/26 00:37:10;;;;;;;19.25;8.30;;;9.60;99.90;;;;;;5022178;28;20080;-44
2022/09/26 00:39:36;;;;;;;17.23;8.45;;;9.60;99.90;;;;;;5020167;28;20034;-45
2022/09/26 00:42:02;;;;;;;13.40;7.78;;;9.60;99.90;;;;;;5028197;28;20018;-48
2022/09/26 00:44:33;;;;;;;10.90;7.32;;;9.60;99.90;;;;;;5023243;28;20026;-45
2022/09/26 00:47:00;;;;;;;15.07;7.35;;;9.50;99.90;;;;;;5020093;28;20399;-47
2022/09/26 00:49:30;;;;;;;11.95;7.63;;;9.50;99.90;;;;;;5019556;28;20037;-47
2022/09/26 00:52:23;;;;;;;15.82;7.28;;;9.40;99.90;;;;;;5021543;28;20021;-44
2022/09/26 00:54:52;;;;;;;10.88;7.63;;;9.40;99.90;;;;;;5021511;28;20026;-46
2022/09/26 00:57:30;;;;;;;14.07;7.50;;;9.40;99.90;;;;;;5019591;28;20068;-46
2022/09/26 01:00:00;;;;;;;12.60;7.32;;;9.50;99.90;;;;;;5019885;28;20438;-44
2022/09/26 01:02:27;;;;;;;19.45;7.50;;;9.40;99.90;;;;;;5019619;28;20462;-46
2022/09/26 01:04:54;;;;;;;13.45;7.97;;;9.50;99.90;;;;;;5021332;28;20084;-45
2022/09/26 01:07:23;;;;;;;10.50;7.00;;;9.40;99.90;;;;;;5019901;28;20487;-44
2022/09/26 01:09:48;;;;;;;11.57;6.75;;;9.40;99.90;;;;;;5019854;28;20037;-44
2022/09/26 01:12:15;;;;;;;12.55;7.43;;;9.40;99.90;;;;;;5027836;28;20434;-45
2022/09/26 01:14:42;;;;;;;10.30;7.03;;;9.40;99.90;;;;;;5021454;28;20021;-44
2022/09/26 01:17:09;;;;;;;12.05;7.28;;;9.40;99.90;;;;;;5019637;28;20526;-45
2022/09/26 01:20:09;;;;;;;11.27;6.95;;;9.40;99.90;;;;;;5019586;28;20063;-45
2022/09/26 01:23:05;;;;;;;11.05;7.32;;;9.40;99.90;;;;;;5020668;28;20257;-45
2022/09/26 01:25:58;;;;;;;10.90;7.05;;;9.40;99.90;;;;;;5020784;28;21116;-47
2022/09/26 01:28:45;;;;;;;16.98;7.25;;;9.40;99.90;;;;;;5019988;28;20010;-48
2022/09/26 01:31:41;;;;;;;12.30;6.75;;;9.40;99.90;;;;;;5020929;28;20029;-45
2022/09/26 01:34:28;;;;;;;12.32;7.03;;;9.40;99.90;;;;;;5019150;28;20021;-45
2022/09/26 01:37:17;;;;;;;16.10;8.02;;;9.30;99.90;;;;;;5020720;28;20022;-46
2022/09/26 01:40:01;;;;;;;12.63;6.57;;;9.30;99.90;;;;;;5019561;28;20080;-44
2022/09/26 01:42:55;;;;;;;14.27;6.78;;;9.40;99.90;;;;;;5024456;28;20029;-44
2022/09/26 01:45:25;;;;;;;13.77;7.28;;;9.40;99.90;;;;;;5019438;28;20045;-45
2022/09/26 01:48:20;;;;;;;;;;;9.40;99.90;;;;;;5019166;28;20099;-44
2022/09/26 01:50:54;;;;;;;14.60;7.50;;;9.30;99.90;;;;;;5015319;28;19909;-44
2022/09/26 01:53:30;;;;;;;9.48;6.82;;;9.30;99.90;;;;;;5018511;28;20493;-51
2022/09/26 01:56:05;;;;;;;14.77;7.18;;;9.30;99.90;;;;;;5018374;28;20083;-45
2022/09/26 01:58:46;;;;;;;13.45;8.20;;;9.30;99.90;;;;;;5018518;28;20025;-44
2022/09/26 02:01:15;;;;;;;19.77;7.03;;;9.30;99.90;;;;;;5019069;28;20029;-45
2022/09/26 02:03:48;;;;;;;14.02;6.82;;;9.30;99.90;;;;;;5017288;28;20083;-44
2022/09/26 02:06:21;;;;;;;11.25;6.20;;;9.20;99.90;;;;;;5018306;28;20411;-44
2022/09/26 02:09:17;;;;;;;5.93;5.28;;;9.30;99.90;;;;;;5019086;28;20378;-45
2022/09/26 02:11:47;;;;;;;9.20;6.03;;;9.20;99.90;;;;;;5015503;28;20037;-44
2022/09/26 02:14:20;;;;;;;9.23;5.65;;;9.20;99.90;;;;;;5016874;28;20565;-44
2022/09/26 02:16:52;;;;;;;11.73;6.55;;;9.20;99.90;;;;;;5009835;28;20030;-45
2022/09/26 02:19:24;;;;;;;8.52;5.90;;;9.20;99.90;;;;;;5025742;28;20534;-47
2022/09/26 02:21:51;;;;;;;13.55;6.53;;;9.20;99.90;;;;;;5026172;28;20042;-44
2022/09/26 02:24:17;;;;;;;14.98;6.88;;;9.10;99.90;;;;;;5027875;28;20028;-45
2022/09/26 02:26:43;;;;;;;10.38;6.10;;;9.20;99.90;;;;;;5027134;28;20017;-44
2022/09/26 02:29:11;;;;;;;8.68;5.22;;;9.10;99.90;;;;;;5027177;28;20037;-45
2022/09/26 02:31:42;;;;;;;10.07;6.40;;;9.10;99.90;;;;;;5028471;28;20026;-44
2022/09/26 02:34:08;;;;;;;10.60;5.53;;;9.10;99.90;;;;;;5028000;28;20131;-45
2022/09/26 02:36:34;;;;;;;18.50;6.60;;;9.10;99.90;;;;;;5028658;28;20544;-44
2022/09/26 02:39:00;;;;;;;11.25;6.25;;;9.10;99.90;;;;;;5028438;28;20041;-44
2022/09/26 02:41:51;;;;;;;9.40;6.32;;;9.10;99.90;;;;;;5023923;28;20534;-45
2022/09/26 02:44:32;;;;;;;13.05;6.38;;;9.00;99.90;;;;;;5019691;28;20439;-45
2022/09/26 02:47:19;;;;;;;7.57;5.30;;;9.00;99.90;;;;;;5020836;28;20021;-47
2022/09/26 02:50:08;;;;;;;10.15;6.43;;;9.10;99.90;;;;;;5015262;28;20018;-48
2022/09/26 02:52:40;;;;;;;11.00;5.57;;;9.10;99.90;;;;;;5021774;28;20022;-44
2022/09/26 02:55:24;;;;;;;13.77;5.38;;;9.10;99.90;;;;;;5022617;28;20037;-45
2022/09/26 02:58:22;;;;;;;12.80;5.97;;;9.10;99.90;;;;;;5015460;28;20025;-45
2022/09/26 03:00:59;;;;;;;9.30;5.22;;;9.10;99.90;;;;;;5015323;28;20458;-44
2022/09/26 03:03:35;;;;;;;12.48;5.25;;;9.20;99.90;;;;;;5016454;28;20273;-45
2022/09/26 03:06:05;;;;;;;12.90;5.40;;;9.20;99.90;;;;;;5015256;28;20010;-45
2022/09/26 03:08:37;;;;;;;11.70;5.20;;;9.20;99.90;;;;;;5021831;28;20104;-44
2022/09/26 03:11:05;;;;;;;7.90;4.38;;;9.30;99.90;;;;;;5015982;28;20484;-45
2022/09/26 03:13:37;;;;;;;6.95;4.47;;;9.40;99.90;;;;;;5024679;28;20026;-44
2022/09/26 03:16:04;;;;;;;10.15;5.65;;;9.40;99.90;;;;;;5018622;28;20496;-44
2022/09/26 03:19:16;;;;;;;11.32;5.03;;;9.30;99.90;;;;;;5025971;28;20121;-45
2022/09/26 03:21:44;;;;;;;10.30;4.95;;;9.30;99.90;;;;;;5019458;28;20050;-44
2022/09/26 03:24:11;;;;;;;9.40;4.00;;;9.40;99.90;;;;;;5025386;28;20038;-45
2022/09/26 03:26:37;;;;;;;10.30;4.47;;;9.40;99.90;;;;;;5025465;28;20533;-44
2022/09/26 03:29:03;;;;;;;11.15;4.65;;;9.40;99.90;;;;;;5025313;28;20249;-46
2022/09/26 03:31:30;;;;;;;11.10;4.93;;;9.40;99.90;;;;;;5023111;28;20068;-45
2022/09/26 03:33:55;;;;;;;13.93;4.53;;;9.30;99.90;;;;;;5022814;28;20029;-45
2022/09/26 03:36:22;;;;;;;9.98;3.72;;;9.40;99.90;;;;;;5021726;28;20454;-46
2022/09/26 03:38:48;;;;;;;13.88;5.53;;;9.40;99.90;;;;;;5021952;28;20025;-46
2022/09/26 03:41:13;;;;;;;6.10;3.97;;;9.40;99.90;;;;;;5025806;28;20022;-45
2022/09/26 03:43:42;;;;;;;9.25;3.80;;;9.40;99.90;;;;;;5028746;28;20025;-45
2022/09/26 03:46:10;;;;;;;15.80;3.72;;;9.50;99.90;;;;;;5021259;28;20053;-44
2022/09/26 03:48:35;;;;;;;9.55;4.68;;;9.40;99.90;;;;;;5020813;28;20025;-45
2022/09/26 03:51:03;;;;;;;8.93;3.97;;;9.40;99.90;;;;;;5022748;28;20018;-44
2022/09/26 03:53:31;;;;;;;8.50;3.95;;;9.40;99.90;;;;;;5021910;28;20041;-47
2022/09/26 03:56:05;;;;;;;11.07;4.60;;;9.50;99.90;;;;;;5019110;28;20029;-44
2022/09/26 03:58:31;;;;;;;10.18;3.88;;;9.50;99.90;;;;;;5021007;28;20048;-44
2022/09/26 04:01:04;;;;;;;14.88;3.70;;;9.40;99.90;;;;;;5022596;28;20025;-45
2022/09/26 04:03:32;;;;;;;9.05;4.78;;;9.50;99.90;;;;;;5022232;28;20102;-44
2022/09/26 04:05:58;;;;;;;9.35;3.95;;;9.50;99.90;;;;;;5020864;28;20022;-44
2022/09/26 04:08:24;;;;;;;8.27;4.32;;;9.40;99.90;;;;;;5022084;28;20024;-44
2022/09/26 04:10:49;;;;;;;9.40;4.65;;;9.50;99.90;;;;;;5021629;28;20029;-44
2022/09/26 04:13:15;;;;;;;13.80;5.43;;;9.50;99.90;;;;;;5029371;28;20075;-45
2022/09/26 04:15:40;;;;;;;8.50;4.53;;;9.50;99.90;;;;;;5024756;28;20033;-46
2022/09/26 04:18:06;;;;;;;13.05;4.80;;;9.50;99.90;;;;;;5022568;28;20034;-44
2022/09/26 04:20:31;;;;;;;7.13;4.20;;;9.50;99.90;;;;;;5024994;28;20086;-45
2022/09/26 04:22:57;;;;;;;14.35;5.03;;;9.50;99.90;;;;;;5030873;28;20021;-44
2022/09/26 04:25:23;;;;;;;11.02;4.72;;;9.50;99.90;;;;;;5031668;28;20474;-44
2022/09/26 04:27:48;;;;;;;10.32;4.43;;;9.50;99.90;;;;;;5031213;28;20036;-45
2022/09/26 04:30:14;;;;;;;14.57;4.15;;;9.50;99.90;;;;;;5026598;28;20064;-44
2022/09/26 04:32:39;;;;;;;13.13;4.72;;;9.60;99.90;;;;;;5026420;28;20195;-44
2022/09/26 04:35:05;;;;;;;10.00;4.35;;;9.60;99.90;;;;;;5023278;28;20091;-44
2022/09/26 04:37:33;;;;;;;6.07;3.65;;;9.60;99.90;;;;;;5019847;28;20037;-46
2022/09/26 04:39:59;;;;;;;8.20;3.88;;;9.60;99.90;;;;;;5020128;28;20041;-45
2022/09/26 04:42:24;;;;;;;6.10;3.33;;;9.50;99.90;;;;;;5019567;28;20435;-44
2022/09/26 04:44:50;;;;;;;8.13;4.20;;;9.60;99.90;;;;;;5022587;28;20029;-44
2022/09/26 04:47:16;;;;;;;6.30;3.58;;;9.60;99.90;;;;;;5031162;28;20026;-44
2022/09/26 04:49:42;;;;;;;11.45;3.55;;;9.60;99.90;;;;;;5030917;28;20017;-46
2022/09/26 04:52:07;;;;;;;8.93;2.97;;;9.50;99.90;;;;;;5031112;28;20031;-44
2022/09/26 04:54:36;;;;;;;6.35;3.85;;;9.50;99.90;;;;;;5031009;28;20025;-44
2022/09/26 04:57:03;;;;;;;12.48;3.38;;;9.60;99.90;;;;;;5031677;28;20044;-44
2022/09/26 04:59:28;;;;;;;6.13;3.00;;;9.60;99.90;;;;;;5031622;28;20567;-45
2022/09/26 05:01:55;;;;;;;5.75;2.85;;;9.60;99.90;;;;;;5038771;28;20100;-45
2022/09/26 05:04:21;;;;;;;4.50;2.55;;;9.60;99.90;;;;;;5042901;28;20032;-45
2022/09/26 05:06:46;;;;;;;7.13;3.05;;;9.60;99.90;;;;;;5051341;28;20023;-45
2022/09/26 05:09:12;;;;;;;7.18;2.80;;;9.60;99.90;;;;;;5051613;28;20029;-45
2022/09/26 05:11:38;;;;;;;9.30;3.03;;;9.60;99.90;;;;;;5044107;28;20060;-46
2022/09/26 05:14:03;;;;;;;7.15;2.80;;;9.70;99.90;;;;;;5028696;28;20049;-45
2022/09/26 05:16:29;;;;;;;10.52;3.13;;;9.70;99.90;;;;;;5026738;28;20025;-46
2022/09/26 05:18:55;;;;;;;4.28;2.53;;;9.70;99.90;;;;;;5041774;28;20482;-45
2022/09/26 05:21:21;;;;;;;5.78;3.03;;;9.70;99.90;;;;;;5039370;28;20018;-45
2022/09/26 05:26:41;;;;;;;10.65;4.35;;;9.70;99.90;;;;;;5025924;28;20119;-44
2022/09/26 05:29:08;;;;;;;13.00;6.03;;;9.70;99.90;;;;;;5010571;28;20022;-45
2022/09/26 05:31:36;;;;;;;4.75;2.58;;;9.70;99.90;;;;;;5033952;28;20074;-45
2022/09/26 05:34:06;;;;;;;7.55;2.63;;;9.80;99.90;;;;;;5033405;28;20025;-44
2022/09/26 05:36:32;;;;;;;3.85;2.22;;;9.80;99.90;;;;;;5041758;28;20067;-46
2022/09/26 05:38:58;;;;;;;5.45;2.67;;;9.90;99.90;;;;;;5049955;28;20037;-45
2022/09/26 05:41:30;;;;;;;6.00;2.50;;;9.90;99.90;;;;;;5044593;28;20025;-44
2022/09/26 05:43:56;;;;;;;5.13;2.75;;;10.00;99.90;;;;;;5041100;28;20081;-46
2022/09/26 05:46:22;;;;;;;5.78;2.47;;;10.00;99.90;;;;;;5047894;28;20136;-45
2022/09/26 05:48:47;;;;;;;4.78;2.30;;;10.00;99.90;;;;;;5038247;28;20080;-45
2022/09/26 05:51:16;;;;;;;5.30;2.05;;;10.10;99.90;;;;;;5029764;28;20447;-45
2022/09/26 05:53:44;;;;;;;4.57;2.25;;;10.10;99.90;;;;;;5029611;28;20175;-45
2022/09/26 05:56:11;;;;;;;3.85;2.20;;;10.20;99.90;;;;;;5029946;28;20052;-45
2022/09/26 05:58:39;;;;;;;7.60;2.83;;;10.20;99.90;;;;;;5028958;28;20029;-44
2022/09/26 06:01:13;;;;;;;8.40;2.33;;;10.20;99.90;;;;;;5029980;28;20021;-45
2022/09/26 06:03:46;;;;;;;8.77;2.47;;;10.20;99.90;;;;;;5029588;28;20032;-47
2022/09/26 06:06:17;;;;;;;4.72;2.30;;;10.30;99.90;;;;;;5029837;28;20047;-44
2022/09/26 06:08:43;;;;;;;9.27;2.17;;;10.30;99.90;;;;;;5028143;28;20309;-44
2022/09/26 06:11:14;;;;;;;6.85;2.30;;;10.30;99.90;;;;;;5029238;28;20030;-45
2022/09/26 06:13:44;;;;;;;9.05;2.08;;;10.40;99.90;;;;;;5028407;28;20083;-44
2022/09/26 06:16:19;;;;;;;9.38;2.20;;;10.40;99.90;;;;;;5029766;28;20431;-47
2022/09/26 06:18:46;;;;;;;7.05;2.50;;;10.40;99.90;;;;;;5030239;28;20096;-44
2022/09/26 06:21:14;;;;;;;4.22;2.20;;;10.50;99.90;;;;;;5030375;28;20638;-47
2022/09/26 06:23:40;;;;;;;2.30;2.05;;;10.50;99.90;;;;;;5029022;28;20132;-46
2022/09/26 06:26:20;;;;;;;7.68;2.30;;;10.60;99.90;;;;;;5027863;28;20033;-44
2022/09/26 06:28:47;;;;;;;12.27;2.97;;;10.60;99.90;;;;;;5029338;28;20037;-45
2022/09/26 06:31:16;;;;;;;8.93;2.08;;;10.70;99.90;;;;;;5027954;28;20037;-45
2022/09/26 06:33:42;;;;;;;6.00;2.15;;;10.70;99.90;;;;;;5028319;28;20422;-44
2022/09/26 06:36:09;;;;;;;2.55;1.65;;;10.80;99.90;;;;;;5029209;28;20033;-46
2022/09/26 06:38:37;;;;;;;7.03;2.03;;;10.80;99.90;;;;;;5026448;28;20394;-45
2022/09/26 06:41:04;;;;;;;7.25;2.70;;;10.90;99.90;;;;;;5025128;28;20108;-44
2022/09/26 06:43:30;;;;;;;6.55;1.85;;;10.90;99.90;;;;;;5028237;28;20025;-45
2022/09/26 06:45:56;;;;;;;8.80;2.50;;;11.00;99.90;;;;;;5028848;28;20017;-44
2022/09/26 06:48:22;;;;;;;5.93;2.05;;;11.10;99.90;;;;;;5031832;28;20025;-44
2022/09/26 06:50:52;;;;;;;7.72;1.98;;;11.10;99.90;;;;;;5033053;28;20072;-45
2022/09/26 06:53:18;;;;;;;5.27;2.10;;;11.10;99.90;;;;;;5031265;28;20030;-46
2022/09/26 06:55:43;;;;;;;4.53;2.00;;;11.20;99.90;;;;;;5032872;28;20099;-44
2022/09/26 06:58:09;;;;;;;5.38;1.80;;;11.30;99.90;;;;;;5032551;28;20437;-45
2022/09/26 07:00:34;;;;;;;6.63;2.17;;;11.20;99.90;;;;;;5031187;28;20029;-44
2022/09/26 07:03:00;;;;;;;5.95;1.88;;;11.30;99.90;;;;;;5032031;28;20028;-46
2022/09/26 07:05:26;;;;;;;6.28;2.08;;;11.30;99.90;;;;;;5032577;28;20060;-45
2022/09/26 07:07:53;;;;;;;5.28;1.98;;;11.40;99.90;;;;;;5031620;28;20087;-45
2022/09/26 07:10:20;;;;;;;6.53;1.88;;;11.40;99.90;;;;;;5032234;28;20025;-45
2022/09/26 07:12:46;;;;;;;4.65;2.03;;;11.50;99.90;;;;;;5031666;28;20033;-44
2022/09/26 07:15:14;;;;;;;2.97;1.58;;;11.50;99.90;;;;;;5032629;28;20138;-45
2022/09/26 07:17:41;;;;;;;33.00;17.95;;;11.70;99.90;;;;;;5023020;28;20064;-44
2022/09/26 07:20:12;;;;;;;7.25;2.15;;;11.70;99.90;;;;;;5031002;28;20029;-44
2022/09/26 07:22:38;;;;;;;7.90;1.88;;;11.90;99.90;;;;;;5031948;28;20033;-46
2022/09/26 07:25:05;;;;;;;7.65;2.00;;;11.90;99.90;;;;;;5032484;28;20395;-45
2022/09/26 07:27:31;;;;;;;4.78;2.00;;;11.90;99.90;;;;;;5032262;28;20021;-45
2022/09/26 07:29:57;;;;;;;6.20;1.88;;;11.90;99.90;;;;;;5032211;28;20052;-45
2022/09/26 07:32:23;;;;;;;6.50;1.60;;;12.00;99.90;;;;;;5031800;28;20025;-46
2022/09/26 07:34:49;;;;;;;6.25;2.67;;;12.10;99.90;;;;;;5031197;28;20029;-45
2022/09/26 07:37:16;;;;;;;4.72;1.92;;;12.10;99.90;;;;;;5032287;28;20037;-44
2022/09/26 07:39:41;;;;;;;12.20;2.42;;;12.10;99.90;;;;;;5028594;28;20029;-44
2022/09/26 07:42:08;;;;;;;8.55;2.20;;;12.00;99.90;;;;;;5024937;28;20040;-44
2022/09/26 07:44:34;;;;;;;11.38;2.42;;;12.20;99.90;;;;;;5031699;28;20104;-45
2022/09/26 07:52:29;;;;;;;6.57;2.53;;;12.40;99.90;;;;;;5032847;28;20112;-48
2022/09/26 07:54:55;;;;;;;6.95;2.15;;;12.60;99.90;;;;;;5033154;28;20447;-44
2022/09/26 07:57:21;;;;;;;9.25;2.22;;;12.70;99.90;;;;;;5016595;28;20116;-44
2022/09/26 07:59:48;;;;;;;5.65;1.90;;;12.90;99.90;;;;;;5012265;28;20038;-44
2022/09/26 08:02:22;;;;;;;8.32;2.47;;;12.90;99.90;;;;;;5012265;28;20652;-45
2022/09/26 08:04:47;;;;;;;8.68;2.30;;;13.00;99.90;;;;;;5012140;28;20041;-46
2022/09/26 08:07:13;;;;;;;3.55;1.95;;;13.10;99.90;;;;;;5028299;28;20025;-46
2022/09/26 08:09:39;;;;;;;7.20;2.15;;;13.10;99.90;;;;;;5030499;28;20032;-45
2022/09/26 08:12:05;;;;;;;7.45;2.83;;;13.10;99.90;;;;;;5029654;28;20021;-46
2022/09/26 08:14:30;;;;;;;5.88;2.90;;;13.30;99.90;;;;;;5031479;28;20513;-45
2022/09/26 08:16:56;;;;;;;7.18;2.80;;;13.50;99.90;;;;;;5031670;28;20033;-47
2022/09/26 08:19:23;;;;;;;3.47;2.08;;;13.60;99.90;;;;;;5031812;28;20116;-45
2022/09/26 08:21:48;;;;;;;6.70;1.85;;;13.70;99.90;;;;;;5029552;28;20056;-47
2022/09/26 08:24:14;;;;;;;4.93;2.20;;;14.00;99.90;;;;;;5031447;28;20056;-44
2022/09/26 08:26:40;;;;;;;6.82;2.35;;;14.50;99.90;;;;;;5031558;28;20018;-45
2022/09/26 08:29:10;;;;;;;7.57;2.30;;;15.00;99.90;;;;;;5031463;28;20570;-46
2022/09/26 08:31:40;;;;;;;6.20;2.00;;;16.20;99.90;;;;;;5029913;28;20057;-45
2022/09/26 08:34:06;;;;;;;5.03;2.40;;;16.40;99.90;;;;;;5029431;28;20711;-46
2022/09/26 08:36:35;;;;;;;5.30;2.45;;;17.30;99.90;;;;;;5029728;28;20033;-46
2022/09/26 08:39:02;;;;;;;7.85;2.03;;;17.50;99.90;;;;;;5012355;28;20539;-46
2022/09/26 08:42:01;;;;;;;4.72;2.20;;;17.90;99.60;;;;;;5010667;28;20141;-48
2022/09/26 08:44:41;;;;;;;5.40;1.70;;;17.60;99.20;;;;;;5011805;28;20280;-46
2022/09/26 08:47:39;;;;;;;8.07;2.63;;;17.30;99.60;;;;;;5020203;28;20033;-47
2022/09/26 08:50:19;;;;;;;4.25;2.40;;;17.00;99.10;;;;;;5030456;28;20044;-45
2022/09/26 08:53:11;;;;;;;9.45;3.15;;;16.70;99.70;;;;;;5026166;28;20041;-45
2022/09/26 08:55:43;;;;;;;6.15;3.13;;;16.10;99.90;;;;;;5029265;28;20112;-46
2022/09/26 08:58:20;;;;;;;7.75;3.00;;;15.90;99.90;;;;;;5030117;28;20104;-45
2022/09/26 09:00:53;;;;;;;7.22;2.40;;;15.90;99.90;;;;;;5030718;28;20021;-46
2022/09/26 09:03:48;;;;;;;9.30;2.70;;;16.20;99.90;;;;;;5030153;28;20033;-46
2022/09/26 09:06:14;;;;;;;7.13;2.60;;;16.20;99.90;;;;;;5029889;28;20086;-47
2022/09/26 09:08:42;;;;;;;4.22;2.50;;;15.70;99.90;;;;;;5029805;28;20022;-45
2022/09/26 09:11:29;;;;;;;6.88;2.58;;;15.70;99.90;;;;;;5030063;28;20040;-45
2022/09/26 09:14:08;;;;;;;6.72;3.00;;;15.60;99.90;;;;;;5029931;28;20029;-45
2022/09/26 09:16:50;;;;;;;5.78;2.58;;;15.70;99.90;;;;;;5030341;28;20036;-45
2022/09/26 09:19:47;;;;;;;5.82;2.58;;;15.70;99.90;;;;;;5030158;28;20424;-46
2022/09/26 09:22:43;;;;;;;5.35;2.58;;;15.60;99.90;;;;;;5029759;28;20029;-47
2022/09/26 09:25:23;;;;;;;6.25;3.05;;;15.10;99.90;;;;;;5020964;28;20033;-48
2022/09/26 09:28:03;;;;;;;7.68;3.10;;;14.80;99.90;;;;;;5017774;28;20022;-44
2022/09/26 09:30:50;;;;;;;11.48;3.38;;;15.00;99.90;;;;;;5029631;28;20069;-45
2022/09/26 09:33:30;;;;;;;8.40;2.70;;;15.40;99.90;;;;;;5029709;28;20040;-44
2022/09/26 09:36:07;;;;;;;7.00;2.40;;;16.40;99.90;;;;;;5030192;28;20037;-45
2022/09/26 09:38:37;;;;;;;8.73;2.35;;;18.10;99.30;;;;;;5028845;28;20517;-46
2022/09/26 09:41:23;;;;;;;4.80;2.40;;;20.30;96.80;;;;;;5029827;28;20029;-46
2022/09/26 09:43:49;;;;;;;3.92;2.10;;;21.70;91.40;;;;;;5029322;28;20029;-45
2022/09/26 09:46:28;;;;;;;4.20;2.25;;;22.60;87.90;;;;;;5022083;28;20029;-46
2022/09/26 09:48:56;;;;;;;7.30;2.17;;;22.80;83.90;;;;;;5029371;28;20025;-45
2022/09/26 09:51:26;;;;;;;5.50;2.33;;;22.50;83.60;;;;;;5029499;28;20455;-45
2022/09/26 09:54:22;;;;;;;5.60;2.30;;;21.90;82.30;;;;;;5027442;28;20410;-48
2022/09/26 09:57:09;;;;;;;5.50;1.85;;;21.40;83.80;;;;;;5027001;28;20052;-46
2022/09/26 09:59:51;;;;;;;4.32;2.03;;;21.10;86.50;;;;;;5029124;28;20032;-47
2022/09/26 10:02:39;;;;;;;3.25;1.58;;;21.00;82.90;;;;;;5028680;28;20029;-46
2022/09/26 10:05:34;;;;;;;3.58;1.98;;;22.20;81.80;;;;;;5029181;28;20033;-45
2022/09/26 10:08:01;;;;;;;4.88;1.92;;;21.30;82.70;;;;;;5020232;28;20484;-46
2022/09/26 10:10:44;;;;;;;4.30;1.98;;;21.50;84.00;;;;;;5007886;28;20042;-45
2022/09/26 10:13:10;;;;;;;4.70;2.22;;;21.70;81.50;;;;;;5008634;28;20033;-45
2022/09/26 10:15:43;;;;;;;4.13;2.40;;;22.40;78.90;;;;;;5008828;28;20030;-47
2022/09/26 10:18:17;;;;;;;2.95;1.85;;;22.80;78.30;;;;;;5009340;28;20033;-46
2022/09/26 10:21:07;;;;;;;5.60;1.52;;;22.10;79.00;;;;;;5016179;28;20045;-48
2022/09/26 10:23:38;;;;;;;5.40;2.13;;;22.80;80.20;;;;;;5008444;28;20045;-47
2022/09/26 10:26:07;;;;;;;3.63;2.00;;;21.60;78.20;;;;;;5028264;28;20467;-49
2022/09/26 10:28:57;;;;;;;4.32;1.90;;;20.80;79.00;;;;;;5027002;28;20029;-45
2022/09/26 10:31:28;;;;;;;6.57;2.20;;;20.60;80.80;;;;;;5026937;28;20034;-45
2022/09/26 10:34:01;;;;;;;4.38;1.85;;;20.30;81.60;;;;;;5026303;28;20034;-46
2022/09/26 10:36:35;;;;;;;4.15;1.70;;;20.20;83.60;;;;;;5027044;28;20038;-48
2022/09/26 10:42:03;;;;;;;2.17;1.55;;;20.70;81.00;;;;;;5021266;28;20037;-45
2022/09/26 10:44:35;;;;;;;4.32;1.80;;;19.90;81.60;;;;;;5027225;28;20040;-47
2022/09/26 10:47:09;;;;;;;4.72;1.65;;;19.50;83.20;;;;;;5029121;28;20048;-46
2022/09/26 10:49:50;;;;;;;2.80;1.42;;;19.10;84.30;;;;;;5029255;28;20024;-46
2022/09/26 10:52:25;;;;;;;3.58;1.52;;;18.70;85.80;;;;;;5029380;28;20022;-46
2022/09/26 10:55:04;;;;;;;4.25;1.80;;;18.00;88.10;;;;;;5028311;28;20026;-46
2022/09/26 10:57:45;;;;;;;2.75;2.08;;;17.50;89.40;;;;;;5030234;28;20022;-46
2022/09/26 11:00:20;;;;;;;4.78;1.55;;;17.80;89.00;;;;;;5030056;28;20036;-46
2022/09/26 11:02:50;;;;;;;3.35;1.77;;;18.30;89.00;;;;;;5029831;28;20022;-45
2022/09/26 11:08:05;;;;;;;4.47;1.80;;;17.70;89.00;;;;;;5029095;28;20064;-45
2022/09/26 11:10:32;;;;;;;4.20;2.05;;;17.60;90.30;;;;;;5027605;28;20579;-48
2022/09/26 11:13:01;;;;;;;3.75;1.80;;;17.40;90.00;;;;;;5027970;28;20037;-46
2022/09/26 11:15:27;;;;;;;6.22;2.13;;;17.30;90.30;;;;;;5028995;28;20025;-45
2022/09/26 11:17:54;;;;;;;3.53;2.03;;;16.60;90.60;;;;;;5028914;28;20067;-46
2022/09/26 11:20:32;;;;;;;8.50;2.47;;;16.80;91.20;;;;;;5028358;28;20044;-45
2022/09/26 11:23:12;;;;;;;4.15;2.10;;;17.20;90.00;;;;;;5028096;28;20407;-47
2022/09/26 11:25:46;;;;;;;4.77;2.20;;;17.00;90.30;;;;;;5028969;28;20030;-46
2022/09/26 11:28:33;;;;;;;7.10;2.30;;;16.90;91.00;;;;;;5028663;28;20267;-46
2022/09/26 11:31:04;;;;;;;4.82;1.80;;;16.90;91.10;;;;;;5029037;28;20025;-45
2022/09/26 11:33:30;;;;;;;5.90;2.10;;;17.20;90.60;;;;;;5031068;28;20195;-48
2022/09/26 11:36:04;;;;;;;3.45;2.17;;;17.30;90.30;;;;;;5032115;28;20025;-46
2022/09/26 11:38:54;;;;;;;3.65;1.75;;;17.90;88.80;;;;;;5029637;28;20030;-48
2022/09/26 11:42:00;;;;;;;3.08;1.80;;;18.50;87.80;;;;;;5017714;28;20033;-46
2022/09/26 11:44:50;;;;;;;3.08;1.80;;;19.00;84.10;;;;;;5016816;28;20026;-46
2022/09/26 11:47:43;;;;;;;6.97;2.10;;;18.90;85.90;;;;;;5032301;28;20477;-46
2022/09/26 11:50:39;;;;;;;3.38;1.85;;;18.80;85.80;;;;;;5032331;28;20036;-48
2022/09/26 11:53:04;;;;;;;4.97;1.88;;;19.30;81.90;;;;;;5031860;28;20034;-46
2022/09/26 11:56:00;;;;;;;5.93;1.85;;;19.50;82.70;;;;;;5032640;28;20025;-46
2022/09/26 11:58:58;;;;;;;3.38;1.75;;;18.00;84.20;;;;;;5030876;28;20513;-45
2022/09/26 12:01:45;;;;;;;4.57;1.85;;;17.60;83.90;;;;;;5032436;28;20025;-46
2022/09/26 12:04:53;;;;;;;4.05;1.80;;;17.80;85.20;;;;;;5030342;28;20032;-45
2022/09/26 12:07:36;;;;;;;1.80;1.65;;;17.80;85.70;;;;;;5029032;28;20548;-46
2022/09/26 12:10:36;;;;;;;5.25;2.30;;;17.70;85.50;;;;;;5014968;28;20032;-46
2022/09/26 12:13:10;;;;;;;3.58;1.60;;;17.10;87.30;;;;;;5023217;28;20446;-46
2022/09/26 12:16:13;;;;;;;6.18;2.28;;;17.40;86.80;;;;;;5033523;28;20029;-46
2022/09/26 12:18:54;;;;;;;4.28;1.90;;;17.80;86.00;;;;;;5028850;28;20402;-48
2022/09/26 12:25:18;;;;;;;37.85;21.75;;;17.80;85.60;;;;;;5031287;28;20033;-49
2022/09/26 12:28:09;;;;;;;6.72;1.45;;;18.20;85.80;;;;;;5030821;28;20446;-47
2022/09/26 12:30:44;;;;;;;3.95;2.15;;;17.70;85.70;;;;;;5025434;28;20025;-47
2022/09/26 12:33:47;;;;;;;3.67;1.70;;;17.60;84.90;;;;;;5031211;28;20033;-46
2022/09/26 12:36:28;;;;;;;1.92;1.45;;;17.40;85.80;;;;;;5022318;28;20112;-46
2022/09/26 12:39:12;;;;;;;6.82;2.17;;;17.40;85.10;;;;;;5025086;28;20431;-48
2022/09/26 12:42:12;;;;;;;5.07;2.33;;;17.30;86.60;;;;;;5018613;28;20032;-49
2022/09/26 12:45:16;;;;;;;4.10;1.60;;;17.30;88.50;;;;;;5021411;28;20383;-46
2022/09/26 12:48:09;;;;;;;4.60;1.75;;;17.50;87.20;;;;;;5030662;28;20033;-46
2022/09/26 12:50:53;;;;;;;4.82;1.48;;;17.40;87.60;;;;;;5029603;28;20029;-46
2022/09/26 12:53:56;;;;;;;3.33;1.90;;;17.50;87.00;;;;;;5015554;28;20066;-46
2022/09/26 12:56:55;;;;;;;2.22;1.92;;;17.40;87.10;;;;;;5027174;28;20017;-47
2022/09/26 12:59:58;;;;;;;4.10;1.55;;;17.10;86.50;;;;;;5030840;28;20390;-46
2022/09/26 13:02:45;;;;;;;7.30;1.83;;;17.10;87.50;;;;;;5030171;28;20034;-47
2022/09/26 13:05:35;;;;;;;5.85;2.10;;;16.90;89.70;;;;;;5030762;28;20018;-46
2022/09/26 13:08:35;;;;;;;2.67;2.25;;;16.80;89.20;;;;;;5030419;28;20025;-46
2022/09/26 13:11:22;;;;;;;5.75;1.60;;;16.60;89.90;;;;;;5030770;28;20057;-46
2022/09/26 13:14:17;;;;;;;2.08;1.45;;;16.30;89.60;;;;;;5030147;28;20025;-46
2022/09/26 13:17:04;;;;;;;3.05;1.85;;;16.20;90.50;;;;;;5030542;28;20041;-45
2022/09/26 13:19:54;;;;;;;2.25;1.80;;;16.30;91.30;;;;;;5028977;28;20120;-45
2022/09/26 13:22:41;;;;;;;7.10;2.10;;;16.30;91.20;;;;;;5024626;28;20083;-46
2022/09/26 13:25:09;;;;;;;7.60;1.77;;;16.10;91.10;;;;;;5006994;28;20041;-45
2022/09/26 13:27:42;;;;;;;4.40;1.95;;;16.00;90.70;;;;;;5023643;28;20684;-48
2022/09/26 13:30:16;;;;;;;4.47;1.95;;;15.80;91.30;;;;;;5027411;28;20129;-46
2022/09/26 13:33:04;;;;;;;4.43;1.52;;;15.80;91.40;;;;;;5030271;28;20478;-48
2022/09/26 13:35:34;;;;;;;5.20;1.88;;;15.70;91.70;;;;;;5030240;28;20395;-47
2022/09/26 13:38:33;;;;;;;4.82;1.63;;;15.60;91.70;;;;;;5029216;28;20025;-47
2022/09/26 13:41:32;;;;;;;5.00;1.80;;;15.50;92.10;;;;;;5029756;28;20494;-47